createdAt,value
2019-02-21T00:01:18.706Z,12.17
2019-02-21T00:03:48.165Z,12.27
2019-02-21T00:09:07.430Z,12.07
2019-02-21T00:11:37.594Z,12.63
2019-02-21T00:44:15.152Z,13.20
2019-02-21T00:46:44.321Z,13.70
2019-02-21T00:49:13.623Z,13.50
2019-02-21T00:51:43.075Z,13.57
2019-02-21T00:54:13.042Z,13.40
2019-02-21T00:56:42.678Z,13.60
2019-02-21T01:16:00.182Z,14.60
2019-02-21T01:18:29.541Z,14.10
2019-02-21T01:20:58.924Z,14.53
2019-02-21T01:23:28.202Z,13.13
2019-02-21T01:25:57.660Z,12.63
2019-02-21T01:28:26.892Z,12.43
2019-02-21T01:30:57.210Z,13.10
2019-02-21T01:33:27.303Z,14.03
2019-02-21T01:35:56.512Z,16.07
2019-02-21T02:19:46.019Z,12.97
2019-02-21T02:22:15.198Z,14.33
2019-02-21T02:24:45.245Z,13.50
2019-02-21T02:27:14.702Z,14.03
2019-02-21T02:29:44.096Z,13.77
2019-02-21T02:32:13.485Z,12.63
2019-02-21T02:34:43.217Z,13.50
2019-02-21T02:37:12.581Z,14.33
2019-02-21T02:44:56.605Z,13.37
2019-02-21T02:47:25.785Z,13.23
2019-02-21T02:49:55.013Z,13.80
2019-02-21T02:52:24.688Z,14.17
2019-02-21T02:54:54.065Z,13.00
2019-02-21T03:08:21.102Z,14.03
2019-02-21T03:10:50.293Z,13.47
2019-02-21T03:13:19.516Z,14.50
2019-02-21T03:15:48.716Z,14.83
2019-02-21T03:18:18.202Z,13.97
2019-02-21T03:20:47.483Z,14.70
2019-02-21T03:23:16.978Z,17.50
2019-02-21T03:25:46.476Z,15.47
2019-02-21T03:28:15.711Z,14.80
2019-02-21T03:30:44.955Z,15.80
2019-02-21T03:33:14.202Z,15.27
2019-02-21T03:35:43.674Z,15.13
2019-02-21T03:38:12.887Z,15.10
2019-02-21T03:40:42.431Z,15.87
2019-02-21T03:43:11.638Z,14.93
2019-02-21T03:45:40.838Z,15.17
2019-02-21T03:48:10.361Z,15.43
2019-02-21T03:50:39.594Z,15.00
2019-02-21T03:53:08.817Z,15.27
2019-02-21T03:55:38.030Z,14.03
2019-02-21T03:58:07.247Z,15.77
2019-02-21T04:00:36.772Z,14.87
2019-02-21T04:03:05.980Z,14.67
2019-02-21T04:05:35.478Z,16.40
2019-02-21T04:08:04.710Z,16.33
2019-02-21T04:10:34.239Z,16.60
2019-02-21T04:13:03.454Z,16.13
2019-02-21T04:15:32.664Z,17.47
2019-02-21T04:18:01.872Z,16.37
2019-02-21T04:20:31.455Z,15.80
2019-02-21T04:23:00.659Z,16.67
2019-02-21T04:25:29.925Z,15.27
2019-02-21T04:27:59.377Z,15.93
2019-02-21T04:30:28.617Z,16.43
2019-02-21T04:32:57.807Z,17.20
2019-02-21T04:35:27.312Z,16.40
2019-02-21T04:37:56.536Z,17.70
2019-02-21T04:40:26.119Z,16.70
2019-02-21T04:42:55.975Z,18.20
2019-02-21T04:45:25.219Z,18.20
2019-02-21T04:47:54.426Z,17.83
2019-02-21T04:50:24.197Z,16.80
2019-02-21T04:52:53.884Z,17.20
2019-02-21T04:55:23.142Z,16.97
2019-02-21T04:57:52.455Z,18.77
2019-02-21T05:00:22.671Z,18.10
2019-02-21T05:02:52.576Z,18.43
2019-02-21T05:05:21.985Z,18.37
2019-02-21T05:07:51.891Z,18.40
2019-02-21T05:10:21.258Z,18.83
2019-02-21T05:12:50.584Z,18.57
2019-02-21T05:15:19.820Z,18.40
2019-02-21T05:17:49.062Z,19.13
2019-02-21T05:20:18.296Z,19.17
2019-02-21T05:22:47.803Z,20.43
2019-02-21T05:25:17.100Z,20.57
2019-02-21T05:30:43.639Z,20.00
2019-02-21T05:33:31.773Z,18.60
2019-02-21T06:08:32.621Z,19.47
2019-02-21T06:43:57.059Z,19.20
2019-02-21T07:48:20.246Z,19.03
2019-02-21T08:04:31.819Z,19.63
2019-02-21T08:07:01.094Z,18.03
2019-02-21T08:09:30.333Z,18.47
2019-02-21T08:11:59.569Z,17.63
2019-02-21T08:14:29.066Z,17.30
2019-02-21T08:16:58.787Z,17.10
2019-02-21T08:19:28.199Z,17.80
2019-02-21T08:22:00.245Z,18.53
2019-02-21T08:40:53.590Z,19.87
2019-02-21T08:43:23.608Z,19.37
2019-02-21T08:45:52.857Z,19.23
2019-02-21T08:48:22.129Z,18.70
2019-02-21T08:50:51.671Z,20.07
2019-02-21T08:53:20.918Z,19.33
2019-02-21T08:55:50.294Z,19.93
2019-02-21T08:58:19.796Z,19.63
2019-02-21T09:01:28.805Z,20.53
2019-02-21T09:04:09.594Z,19.00
2019-02-21T09:06:29.338Z,20.13
2019-02-21T09:08:59.064Z,19.33
2019-02-21T09:11:28.387Z,20.70
2019-02-21T09:16:32.369Z,21.77
2019-02-21T09:19:01.619Z,21.73
2019-02-21T09:21:30.856Z,22.47
2019-02-21T09:24:00.729Z,20.33
2019-02-21T09:26:30.364Z,19.77
2019-02-21T09:29:00.205Z,20.27
2019-02-21T09:31:30.198Z,21.23
2019-02-21T09:33:59.598Z,20.90
2019-02-21T09:36:28.877Z,21.13
2019-02-21T09:41:33.008Z,19.40
2019-02-21T09:44:02.950Z,19.83
2019-02-21T09:46:32.721Z,19.77
2019-02-21T09:49:03.057Z,19.60
2019-02-21T09:51:36.516Z,19.83
2019-02-21T10:26:09.395Z,19.13
2019-02-21T10:28:38.867Z,19.20
2019-02-21T10:31:09.134Z,19.50
2019-02-21T10:33:46.580Z,18.23
2019-02-21T10:36:10.309Z,19.83
2019-02-21T10:38:39.776Z,19.80
2019-02-21T10:41:09.689Z,19.53
2019-02-21T10:43:39.542Z,19.20
2019-02-21T10:46:09.064Z,19.80
2019-02-21T10:48:38.827Z,19.60
2019-02-21T10:51:22.338Z,18.83
2019-02-21T11:17:57.338Z,19.30
2019-02-21T11:20:26.822Z,19.27
2019-02-21T11:22:56.375Z,19.20
2019-02-21T11:25:26.275Z,19.70
2019-02-21T11:27:56.410Z,19.23
2019-02-21T11:30:25.605Z,19.00
2019-02-21T11:32:55.143Z,20.33
2019-02-21T11:35:24.448Z,19.47
2019-02-21T11:37:54.234Z,17.80
2019-02-21T11:41:03.825Z,18.10
2019-02-21T11:43:33.318Z,18.13
2019-02-21T11:48:51.230Z,18.30
2019-02-21T11:51:21.248Z,19.10
2019-02-21T11:53:50.893Z,17.20
2019-02-21T11:56:20.542Z,17.97
2019-02-21T11:58:50.048Z,16.73
2019-02-21T12:01:19.972Z,17.27
2019-02-21T12:03:49.505Z,15.30
2019-02-21T12:06:19.282Z,17.07
2019-02-21T12:08:48.846Z,15.63
2019-02-21T12:11:18.367Z,16.63
2019-02-21T12:13:47.913Z,16.07
2019-02-21T12:16:17.106Z,14.70
2019-02-21T12:18:46.703Z,14.27
2019-02-21T12:21:16.824Z,13.87
2019-02-21T12:23:46.655Z,14.70
2019-02-21T12:26:35.140Z,14.83
2019-02-21T12:29:04.845Z,16.83
2019-02-21T12:31:34.582Z,15.93
2019-02-21T12:34:04.140Z,16.30
2019-02-21T12:36:34.038Z,12.17
2019-02-21T12:41:59.252Z,11.83
2019-02-21T12:44:29.130Z,11.80
2019-02-21T12:46:58.521Z,12.63
2019-02-21T12:49:28.229Z,11.77
2019-02-21T12:51:57.732Z,13.33
2019-02-21T12:54:27.258Z,13.23
2019-02-21T12:56:56.734Z,14.00
2019-02-21T12:59:25.994Z,13.10
2019-02-21T13:01:55.503Z,14.07
2019-02-21T13:04:25.025Z,14.67
2019-02-21T13:06:54.308Z,13.43
2019-02-21T13:09:24.229Z,14.80
2019-02-21T13:11:53.852Z,12.43
2019-02-21T13:14:23.188Z,13.83
2019-02-21T13:16:52.748Z,14.13
2019-02-21T13:19:22.299Z,14.13
2019-02-21T13:21:51.848Z,12.20
2019-02-21T13:24:21.477Z,14.07
2019-02-21T13:26:51.389Z,15.00
2019-02-21T13:29:20.631Z,14.50
2019-02-21T13:31:50.733Z,13.97
2019-02-21T13:34:20.805Z,13.63
2019-02-21T13:36:50.741Z,14.07
2019-02-21T13:39:21.105Z,14.03
2019-02-21T13:41:50.455Z,13.70
2019-02-21T13:44:19.721Z,13.60
2019-02-21T13:46:48.941Z,14.10
2019-02-21T13:49:37.389Z,15.43
2019-02-21T13:52:07.412Z,14.37
2019-02-21T13:54:36.919Z,17.20
2019-02-21T13:57:25.086Z,18.50
2019-02-21T13:59:54.894Z,17.53
2019-02-21T14:02:24.530Z,18.77
2019-02-21T14:04:54.877Z,17.30
2019-02-21T14:07:24.774Z,17.17
2019-02-21T14:09:54.089Z,15.97
2019-02-21T14:12:26.287Z,16.93
2019-02-21T14:14:55.220Z,16.93
2019-02-21T14:17:24.756Z,17.83
2019-02-21T14:19:54.507Z,17.50
2019-02-21T14:22:24.039Z,16.53
2019-02-21T14:24:56.249Z,17.03
2019-02-21T14:27:26.200Z,16.77
2019-02-21T14:29:55.826Z,17.13
2019-02-21T14:32:25.065Z,17.53
2019-02-21T14:34:55.002Z,17.40
2019-02-21T14:37:24.215Z,16.93
2019-02-21T14:39:54.207Z,18.07
2019-02-21T14:42:23.738Z,16.80
2019-02-21T14:44:56.411Z,17.13
2019-02-21T14:47:25.800Z,17.07
2019-02-21T14:49:55.330Z,18.93
2019-02-21T14:52:24.744Z,19.87
2019-02-21T14:54:54.639Z,18.23
2019-02-21T14:57:24.365Z,18.97
2019-02-21T14:59:54.906Z,16.43
2019-02-21T15:02:25.149Z,18.97
2019-02-21T15:04:57.916Z,19.23
2019-02-21T15:07:29.956Z,21.10
2019-02-21T15:18:22.700Z,20.23
2019-02-21T15:20:52.878Z,19.57
2019-02-21T15:23:24.847Z,18.77
2019-02-21T15:25:56.982Z,36.63
2019-02-21T15:51:14.588Z,22.03
2019-02-21T15:53:44.554Z,21.03
2019-02-21T15:56:16.918Z,20.87
2019-02-21T15:58:46.878Z,19.90
2019-02-21T16:01:16.128Z,18.90
2019-02-21T16:03:45.701Z,19.27
2019-02-21T16:06:15.354Z,17.93
2019-02-21T16:08:45.389Z,19.10
2019-02-21T16:11:16.715Z,19.40
2019-02-21T16:13:46.846Z,21.33
2019-02-21T16:18:52.995Z,22.93
2019-02-21T16:21:22.542Z,19.73
2019-02-21T16:23:52.731Z,19.30
2019-02-21T16:26:22.670Z,19.10
2019-02-21T16:28:52.479Z,19.23
2019-02-21T16:31:22.502Z,19.87
2019-02-21T16:33:52.543Z,19.83
2019-02-21T16:36:22.105Z,19.87
2019-02-21T16:38:51.934Z,19.20
2019-02-21T16:41:21.882Z,20.90
2019-02-21T16:43:51.726Z,23.13
2019-02-21T16:46:21.623Z,19.87
2019-02-21T16:48:51.135Z,19.63
2019-02-21T16:51:40.341Z,20.80
2019-02-21T16:54:10.363Z,19.93
2019-02-21T16:56:39.918Z,19.77
2019-02-21T16:59:09.381Z,19.43
2019-02-21T17:01:38.960Z,18.50
2019-02-21T17:04:08.452Z,19.07
2019-02-21T17:06:38.001Z,19.03
2019-02-21T17:09:47.346Z,19.20
2019-02-21T17:12:17.176Z,18.97
2019-02-21T17:14:47.098Z,18.37
2019-02-21T17:17:16.350Z,19.20
2019-02-21T17:22:34.341Z,18.27
2019-02-21T17:25:04.742Z,19.13
2019-02-21T17:27:34.516Z,20.23
2019-02-21T17:33:13.502Z,19.37
2019-02-21T17:35:42.713Z,19.17
2019-02-21T17:38:14.380Z,21.23
2019-02-21T17:40:43.248Z,20.70
2019-02-21T17:43:13.056Z,21.50
2019-02-21T17:45:43.108Z,23.13
2019-02-21T17:48:12.763Z,24.50
2019-02-21T17:50:42.363Z,24.27
2019-02-21T17:53:11.618Z,22.57
2019-02-21T17:55:41.205Z,21.57
2019-02-21T17:58:11.336Z,22.77
2019-02-21T18:00:40.895Z,21.10
2019-02-21T18:03:10.135Z,22.70
2019-02-21T18:05:39.722Z,22.67
2019-02-21T18:08:09.396Z,23.63
2019-02-21T18:10:38.595Z,31.70
2019-02-21T18:13:08.177Z,31.60
2019-02-21T18:15:37.544Z,31.93
2019-02-21T18:18:06.804Z,33.97
2019-02-21T18:20:36.055Z,58.70
2019-02-21T18:23:05.301Z,30.60
2019-02-21T18:25:37.983Z,50.83
2019-02-21T18:28:07.990Z,30.63
2019-02-21T18:30:37.250Z,44.60
2019-02-21T18:33:06.750Z,30.80
2019-02-21T18:35:37.036Z,27.13
2019-02-21T18:38:06.672Z,26.90
2019-02-21T18:40:36.330Z,25.77
2019-02-21T18:43:06.413Z,26.67
2019-02-21T18:45:35.973Z,30.67
2019-02-21T18:48:05.479Z,27.87
2019-02-21T18:50:38.462Z,29.70
2019-02-21T18:53:06.712Z,30.03
2019-02-21T18:55:36.027Z,29.50
2019-02-21T18:58:05.525Z,30.47
2019-02-21T19:00:35.060Z,28.97
2019-02-21T19:03:04.320Z,29.00
2019-02-21T19:05:36.204Z,28.77
2019-02-21T19:08:05.663Z,28.30
2019-02-21T19:10:36.158Z,27.67
2019-02-21T19:13:07.644Z,28.17
2019-02-21T19:15:56.110Z,27.63
2019-02-21T19:18:25.938Z,27.13
2019-02-21T19:20:56.190Z,27.90
2019-02-21T19:23:26.393Z,27.67
2019-02-21T19:25:55.752Z,27.80
2019-02-21T19:28:25.104Z,26.50
2019-02-21T19:30:59.028Z,26.07
2019-02-21T19:33:29.099Z,25.27
2019-02-21T19:35:58.819Z,25.13
2019-02-21T19:38:28.867Z,24.73
2019-02-21T19:40:59.167Z,25.90
2019-02-21T19:44:09.100Z,25.40
2019-02-21T19:46:39.020Z,26.33
2019-02-21T19:49:08.277Z,25.17
2019-02-21T19:51:37.861Z,27.03
2019-02-21T19:54:07.467Z,25.80
2019-02-21T19:56:37.150Z,26.00
2019-02-21T19:59:06.538Z,26.83
2019-02-21T20:01:35.897Z,27.77
2019-02-21T20:04:05.286Z,26.90
2019-02-21T20:06:35.731Z,27.13
2019-02-21T20:09:05.905Z,27.53
2019-02-21T20:11:36.088Z,26.83
2019-02-21T20:14:07.389Z,25.97
2019-02-21T20:16:37.218Z,26.97
2019-02-21T20:19:06.989Z,24.83
2019-02-21T20:21:36.285Z,25.47
2019-02-21T20:24:05.715Z,25.37
2019-02-21T20:26:35.977Z,26.17
2019-02-21T20:29:05.278Z,26.00
2019-02-21T20:34:09.877Z,27.17
2019-02-21T20:36:50.455Z,26.83
2019-02-21T20:39:11.208Z,25.37
2019-02-21T20:41:40.643Z,26.37
2019-02-21T20:44:09.920Z,27.13
2019-02-21T20:46:39.947Z,28.00
2019-02-21T20:49:29.182Z,27.43
2019-02-21T20:51:58.540Z,28.67
2019-02-21T20:54:28.195Z,27.33
2019-02-21T20:56:58.683Z,27.37
2019-02-21T20:59:28.961Z,27.37
2019-02-21T21:01:58.270Z,26.40
2019-02-21T21:04:27.603Z,28.80
2019-02-21T21:06:57.613Z,28.20
2019-02-21T21:09:27.435Z,29.50
2019-02-21T21:11:57.198Z,28.23
2019-02-21T21:14:26.797Z,28.37
2019-02-21T21:16:56.479Z,28.70
2019-02-21T21:19:26.720Z,28.13
2019-02-21T21:21:56.080Z,27.80
2019-02-21T21:24:25.453Z,28.17
2019-02-21T21:26:55.088Z,29.20
2019-02-21T21:29:24.784Z,27.63
2019-02-21T21:31:54.520Z,29.57
2019-02-21T21:34:24.068Z,31.00
2019-02-21T21:36:53.462Z,33.13
2019-02-21T21:39:23.108Z,33.03
2019-02-21T21:41:52.736Z,31.07
2019-02-21T21:44:22.360Z,31.73
2019-02-21T21:46:52.022Z,32.07
2019-02-21T21:49:21.685Z,28.47
2019-02-21T21:51:55.231Z,30.23
2019-02-21T21:54:25.914Z,28.90
2019-02-21T21:57:35.811Z,30.13
2019-02-21T22:00:06.955Z,30.53
2019-02-21T22:05:12.411Z,29.60
2019-02-21T22:07:41.918Z,30.30
2019-02-21T22:10:12.112Z,31.33
2019-02-21T22:12:41.615Z,32.03
2019-02-21T22:15:12.184Z,31.07
2019-02-21T22:17:42.279Z,29.73
2019-02-21T22:22:41.278Z,31.23
2019-02-21T22:25:12.018Z,30.37
2019-02-21T22:27:41.538Z,30.23
2019-02-21T22:30:12.789Z,30.83
2019-02-21T22:33:01.090Z,30.70
2019-02-21T22:35:30.291Z,30.43
2019-02-21T22:37:59.816Z,30.47
2019-02-21T22:40:29.070Z,30.00
2019-02-21T22:42:58.680Z,30.33
2019-02-21T22:45:27.894Z,31.10
2019-02-21T22:47:58.163Z,31.57
2019-02-21T22:50:28.265Z,30.53
2019-02-21T22:52:58.053Z,29.90
2019-02-21T22:55:28.108Z,29.20
2019-02-21T22:57:58.857Z,30.37
2019-02-21T23:01:07.196Z,31.37
2019-02-21T23:07:30.006Z,29.33
2019-02-21T23:09:59.512Z,29.83
2019-02-21T23:12:28.816Z,29.93
2019-02-21T23:14:58.649Z,31.03
2019-02-21T23:17:28.132Z,28.20
2019-02-21T23:19:57.705Z,29.53
2019-02-21T23:22:27.512Z,30.73
2019-02-21T23:24:57.417Z,30.70
2019-02-21T23:27:27.343Z,27.73
2019-02-21T23:29:56.891Z,30.00
2019-02-21T23:32:26.377Z,30.20
2019-02-21T23:37:52.263Z,30.80
2019-02-21T23:43:16.899Z,31.80
2019-02-21T23:45:46.156Z,30.93
2019-02-21T23:48:15.980Z,30.77
2019-02-21T23:50:45.757Z,30.87
2019-02-21T23:53:14.991Z,30.93
2019-02-21T23:55:45.062Z,29.90
2019-02-21T23:58:14.567Z,32.40
